createdAt,value
2018-08-31T00:00:36.045Z,1012.33
2018-08-31T00:01:41.568Z,1012.30
2018-08-31T00:02:47.071Z,1012.28
2018-08-31T00:03:52.592Z,1012.29
2018-08-31T00:04:58.105Z,1012.24
2018-08-31T00:06:03.624Z,1012.23
2018-08-31T00:07:09.139Z,1012.25
2018-08-31T00:08:14.651Z,1012.22
2018-08-31T00:09:20.164Z,1012.21
2018-08-31T00:10:25.687Z,1012.19
2018-08-31T00:11:31.200Z,1012.20
2018-08-31T00:12:36.719Z,1012.17
2018-08-31T00:13:42.234Z,1012.18
2018-08-31T00:14:47.745Z,1012.21
2018-08-31T00:15:53.254Z,1012.16
2018-08-31T00:16:58.770Z,1012.16
2018-08-31T00:18:04.283Z,1012.17
2018-08-31T00:19:09.795Z,1012.19
2018-08-31T00:20:15.315Z,1012.16
2018-08-31T00:21:20.835Z,1012.14
2018-08-31T00:22:26.342Z,1012.14
2018-08-31T00:23:31.857Z,1012.15
2018-08-31T00:24:37.367Z,1012.13
2018-08-31T00:25:42.886Z,1012.15
2018-08-31T00:26:48.400Z,1012.16
2018-08-31T00:27:53.908Z,1012.13
2018-08-31T00:28:59.424Z,1012.15
2018-08-31T00:30:04.942Z,1012.11
2018-08-31T00:31:10.464Z,1012.11
2018-08-31T00:32:15.975Z,1012.11
2018-08-31T00:33:21.480Z,1012.06
2018-08-31T00:34:26.998Z,1012.07
2018-08-31T00:35:32.519Z,1012.08
2018-08-31T00:36:38.029Z,1012.08
2018-08-31T00:37:43.541Z,1012.10
2018-08-31T00:38:49.058Z,1012.10
2018-08-31T00:39:54.570Z,1012.13
2018-08-31T00:41:00.088Z,1012.16
2018-08-31T00:42:05.599Z,1012.15
2018-08-31T00:43:11.119Z,1012.17
2018-08-31T00:44:16.638Z,1012.19
2018-08-31T00:45:22.141Z,1012.18
2018-08-31T00:46:27.654Z,1012.21
2018-08-31T00:47:33.172Z,1012.22
2018-08-31T00:48:38.684Z,1012.19
2018-08-31T00:49:44.201Z,1012.23
2018-08-31T00:50:49.714Z,1012.27
2018-08-31T00:51:55.227Z,1012.25
2018-08-31T00:53:00.745Z,1012.24
2018-08-31T00:54:06.254Z,1012.24
2018-08-31T00:55:11.782Z,1012.30
2018-08-31T00:56:17.287Z,1012.26
2018-08-31T00:57:22.807Z,1012.28
2018-08-31T00:58:28.311Z,1012.26
2018-08-31T00:59:33.824Z,1012.19
2018-08-31T01:00:39.349Z,1012.22
2018-08-31T01:01:44.864Z,1012.24
2018-08-31T01:02:50.376Z,1012.23
2018-08-31T01:03:55.893Z,1012.23
2018-08-31T01:05:01.402Z,1012.23
2018-08-31T01:06:06.912Z,1012.22
2018-08-31T01:07:12.432Z,1012.24
2018-08-31T01:08:17.939Z,1012.21
2018-08-31T01:09:23.460Z,1012.20
2018-08-31T01:10:28.971Z,1012.22
2018-08-31T01:11:34.486Z,1012.21
2018-08-31T01:12:39.999Z,1012.23
2018-08-31T01:13:45.518Z,1012.25
2018-08-31T01:14:51.028Z,1012.25
2018-08-31T01:15:56.538Z,1012.28
2018-08-31T01:17:02.058Z,1012.27
2018-08-31T01:18:07.567Z,1012.26
2018-08-31T01:19:13.084Z,1012.28
2018-08-31T01:20:18.597Z,1012.25
2018-08-31T01:21:24.116Z,1012.22
2018-08-31T01:22:29.625Z,1012.23
2018-08-31T01:23:35.141Z,1012.25
2018-08-31T01:24:40.658Z,1012.25
2018-08-31T01:25:46.168Z,1012.20
2018-08-31T01:26:51.690Z,1012.22
2018-08-31T01:27:57.195Z,1012.18
2018-08-31T01:29:02.711Z,1012.22
2018-08-31T01:30:08.224Z,1012.27
2018-08-31T01:31:13.739Z,1012.24
2018-08-31T01:32:19.262Z,1012.21
2018-08-31T01:33:24.768Z,1012.23
2018-08-31T01:34:30.283Z,1012.22
2018-08-31T01:35:35.795Z,1012.18
2018-08-31T01:36:41.308Z,1012.20
2018-08-31T01:37:46.820Z,1012.20
2018-08-31T01:38:52.333Z,1012.19
2018-08-31T01:39:57.861Z,1012.14
2018-08-31T01:41:03.367Z,1012.19
2018-08-31T01:42:08.876Z,1012.21
2018-08-31T01:43:14.399Z,1012.22
2018-08-31T01:44:19.912Z,1012.19
2018-08-31T01:45:25.422Z,1012.22
2018-08-31T01:46:30.933Z,1012.19
2018-08-31T01:47:36.450Z,1012.20
2018-08-31T01:48:41.964Z,1012.21
2018-08-31T01:49:47.480Z,1012.19
2018-08-31T01:50:52.990Z,1012.22
2018-08-31T01:51:58.505Z,1012.19
2018-08-31T01:53:04.018Z,1012.20
2018-08-31T01:54:09.529Z,1012.16
2018-08-31T01:55:15.056Z,1012.17
2018-08-31T01:56:20.559Z,1012.17
2018-08-31T01:57:26.077Z,1012.18
2018-08-31T01:58:31.590Z,1012.14
2018-08-31T01:59:37.105Z,1012.19
2018-08-31T02:00:42.619Z,1012.15
2018-08-31T02:01:48.139Z,1012.12
2018-08-31T02:02:53.645Z,1012.13
2018-08-31T02:03:59.206Z,1012.15
2018-08-31T02:05:04.676Z,1012.15
2018-08-31T02:06:10.194Z,1012.16
2018-08-31T02:07:15.701Z,1012.17
2018-08-31T02:08:21.215Z,1012.11
2018-08-31T02:09:26.727Z,1012.12
2018-08-31T02:10:32.241Z,1012.15
2018-08-31T02:11:37.752Z,1012.15
2018-08-31T02:12:43.267Z,1012.15
2018-08-31T02:13:48.779Z,1012.14
2018-08-31T02:14:54.304Z,1012.13
2018-08-31T02:15:59.808Z,1012.15
2018-08-31T02:17:05.324Z,1012.17
2018-08-31T02:18:10.838Z,1012.18
2018-08-31T02:19:16.355Z,1012.17
2018-08-31T02:20:21.867Z,1012.19
2018-08-31T02:21:27.382Z,1012.17
2018-08-31T02:22:32.902Z,1012.17
2018-08-31T02:23:38.408Z,1012.19
2018-08-31T02:24:43.915Z,1012.16
2018-08-31T02:25:49.431Z,1012.16
2018-08-31T02:26:54.947Z,1012.13
2018-08-31T02:28:00.462Z,1012.13
2018-08-31T02:29:05.974Z,1012.13
2018-08-31T02:30:11.489Z,1012.15
2018-08-31T02:31:17.001Z,1012.07
2018-08-31T02:32:22.515Z,1012.10
2018-08-31T02:33:28.034Z,1012.10
2018-08-31T02:34:33.540Z,1012.08
2018-08-31T02:35:39.055Z,1012.07
2018-08-31T02:36:44.560Z,1012.12
2018-08-31T02:37:50.085Z,1012.10
2018-08-31T02:38:55.605Z,1012.11
2018-08-31T02:40:01.110Z,1012.12
2018-08-31T02:41:06.630Z,1012.10
2018-08-31T02:42:12.133Z,1012.09
2018-08-31T02:43:17.653Z,1012.10
2018-08-31T02:44:23.180Z,1012.13
2018-08-31T02:45:28.676Z,1012.12
2018-08-31T02:46:34.193Z,1012.16
2018-08-31T02:47:39.707Z,1012.14
2018-08-31T02:48:45.217Z,1012.14
2018-08-31T02:49:50.732Z,1012.13
2018-08-31T02:50:56.248Z,1012.14
2018-08-31T02:52:01.762Z,1012.15
2018-08-31T02:53:07.278Z,1012.15
2018-08-31T02:54:12.782Z,1012.16
2018-08-31T02:55:18.299Z,1012.13
2018-08-31T02:56:23.812Z,1012.11
2018-08-31T02:57:29.328Z,1012.11
2018-08-31T02:58:34.840Z,1012.10
2018-08-31T02:59:40.354Z,1012.12
2018-08-31T03:00:45.874Z,1012.14
2018-08-31T03:01:51.385Z,1012.10
2018-08-31T03:02:56.899Z,1012.16
2018-08-31T03:04:02.416Z,1012.10
2018-08-31T03:05:07.920Z,1012.12
2018-08-31T03:06:13.435Z,1012.14
2018-08-31T03:07:18.948Z,1012.09
2018-08-31T03:08:24.465Z,1012.15
2018-08-31T03:09:29.972Z,1012.13
2018-08-31T03:10:35.491Z,1012.16
2018-08-31T03:11:41.128Z,1012.13
2018-08-31T03:12:46.515Z,1012.19
2018-08-31T03:13:52.029Z,1012.18
2018-08-31T03:14:57.549Z,1012.17
2018-08-31T03:16:03.054Z,1012.18
2018-08-31T03:17:08.569Z,1012.15
2018-08-31T03:18:14.081Z,1012.16
2018-08-31T03:19:19.596Z,1012.17
2018-08-31T03:20:25.110Z,1012.17
2018-08-31T03:21:30.628Z,1012.15
2018-08-31T03:22:36.137Z,1012.16
2018-08-31T03:23:41.646Z,1012.14
2018-08-31T03:24:47.160Z,1012.18
2018-08-31T03:25:52.676Z,1012.15
2018-08-31T03:26:58.191Z,1012.15
2018-08-31T03:28:03.712Z,1012.17
2018-08-31T03:29:09.216Z,1012.16
2018-08-31T03:30:14.729Z,1012.16
2018-08-31T03:31:20.265Z,1012.13
2018-08-31T03:32:25.756Z,1012.13
2018-08-31T03:33:31.270Z,1012.11
2018-08-31T03:34:36.783Z,1012.14
2018-08-31T03:35:42.299Z,1012.11
2018-08-31T03:36:47.846Z,1012.11
2018-08-31T03:37:53.323Z,1012.13
2018-08-31T03:38:58.838Z,1012.11
2018-08-31T03:40:04.356Z,1012.11
2018-08-31T03:41:09.870Z,1012.10
2018-08-31T03:42:15.375Z,1012.06
2018-08-31T03:43:20.899Z,1012.05
2018-08-31T03:44:26.411Z,1012.09
2018-08-31T03:45:31.915Z,1012.07
2018-08-31T03:46:37.432Z,1012.02
2018-08-31T03:47:42.939Z,1012.01
2018-08-31T03:48:48.452Z,1012.02
2018-08-31T03:49:53.970Z,1012.04
2018-08-31T03:50:59.491Z,1012.01
2018-08-31T03:52:04.996Z,1012.07
2018-08-31T03:53:10.508Z,1012.07
2018-08-31T03:54:16.021Z,1012.12
2018-08-31T03:55:21.537Z,1012.09
2018-08-31T03:56:27.047Z,1012.12
2018-08-31T03:57:32.559Z,1012.12
2018-08-31T03:58:38.072Z,1012.08
2018-08-31T03:59:43.606Z,1012.09
2018-08-31T04:00:49.106Z,1012.13
2018-08-31T04:01:54.611Z,1012.09
2018-08-31T04:03:00.128Z,1012.13
2018-08-31T04:04:05.637Z,1012.10
2018-08-31T04:05:11.159Z,1012.15
2018-08-31T04:06:16.672Z,1012.14
2018-08-31T04:07:22.184Z,1012.13
2018-08-31T04:08:27.693Z,1012.13
2018-08-31T04:09:33.205Z,1012.16
2018-08-31T04:10:38.721Z,1012.11
2018-08-31T04:11:44.229Z,1012.17
2018-08-31T04:12:49.747Z,1012.18
2018-08-31T04:13:55.255Z,1012.15
2018-08-31T04:15:00.856Z,1012.17
2018-08-31T04:16:06.280Z,1012.20
2018-08-31T04:17:11.800Z,1012.21
2018-08-31T04:18:17.310Z,1012.18
2018-08-31T04:19:22.821Z,1012.19
2018-08-31T04:20:28.341Z,1012.19
2018-08-31T04:21:33.850Z,1012.18
2018-08-31T04:22:39.371Z,1012.19
2018-08-31T04:23:44.876Z,1012.19
2018-08-31T04:24:50.388Z,1012.23
2018-08-31T04:25:55.902Z,1012.23
2018-08-31T04:27:01.413Z,1012.25
2018-08-31T04:28:06.927Z,1012.23
2018-08-31T04:29:12.448Z,1012.28
2018-08-31T04:30:17.953Z,1012.24
2018-08-31T04:31:23.471Z,1012.28
2018-08-31T04:32:28.985Z,1012.28
2018-08-31T04:33:34.492Z,1012.26
2018-08-31T04:34:40.008Z,1012.32
2018-08-31T04:35:45.516Z,1012.30
2018-08-31T04:36:51.028Z,1012.33
2018-08-31T04:37:56.548Z,1012.34
2018-08-31T04:39:02.054Z,1012.35
2018-08-31T04:40:07.569Z,1012.33
2018-08-31T04:41:13.084Z,1012.32
2018-08-31T04:42:18.597Z,1012.36
2018-08-31T04:43:24.107Z,1012.39
2018-08-31T04:44:29.624Z,1012.39
2018-08-31T04:45:35.135Z,1012.39
2018-08-31T04:46:40.645Z,1012.40
2018-08-31T04:47:46.163Z,1012.40
2018-08-31T04:48:51.675Z,1012.44
2018-08-31T04:49:57.193Z,1012.41
2018-08-31T04:51:02.706Z,1012.42
2018-08-31T04:52:08.211Z,1012.39
2018-08-31T04:53:13.727Z,1012.42
2018-08-31T04:54:19.239Z,1012.44
2018-08-31T04:55:24.746Z,1012.42
2018-08-31T04:56:30.260Z,1012.43
2018-08-31T04:57:35.773Z,1012.46
2018-08-31T04:58:41.298Z,1012.41
2018-08-31T04:59:46.809Z,1012.44
2018-08-31T05:00:52.313Z,1012.44
2018-08-31T05:01:57.828Z,1012.43
2018-08-31T05:03:03.349Z,1012.44
2018-08-31T05:04:08.856Z,1012.45
2018-08-31T05:05:14.376Z,1012.40
2018-08-31T05:06:19.879Z,1012.44
2018-08-31T05:07:25.386Z,1012.46
2018-08-31T05:08:30.902Z,1012.45
2018-08-31T05:09:36.414Z,1012.42
2018-08-31T05:10:41.933Z,1012.45
2018-08-31T05:11:47.443Z,1012.44
2018-08-31T05:12:52.954Z,1012.48
2018-08-31T05:13:58.468Z,1012.48
2018-08-31T05:15:03.991Z,1012.42
2018-08-31T05:16:09.537Z,1012.45
2018-08-31T05:17:15.011Z,1012.46
2018-08-31T05:18:20.527Z,1012.44
2018-08-31T05:19:26.035Z,1012.41
2018-08-31T05:20:31.546Z,1012.42
2018-08-31T05:21:37.073Z,1012.40
2018-08-31T05:22:42.676Z,1012.44
2018-08-31T05:23:48.087Z,1012.41
2018-08-31T05:24:53.600Z,1012.41
2018-08-31T05:25:59.113Z,1012.41
2018-08-31T05:27:04.623Z,1012.39
2018-08-31T05:28:10.140Z,1012.39
2018-08-31T05:29:15.648Z,1012.43
2018-08-31T05:30:21.166Z,1012.42
2018-08-31T05:31:26.682Z,1012.44
2018-08-31T05:32:32.188Z,1012.46
2018-08-31T05:33:37.710Z,1012.46
2018-08-31T05:34:43.222Z,1012.50
2018-08-31T05:35:48.729Z,1012.50
2018-08-31T05:36:54.238Z,1012.55
2018-08-31T05:37:59.757Z,1012.54
2018-08-31T05:39:05.266Z,1012.56
2018-08-31T05:40:11.546Z,1012.56
2018-08-31T05:41:16.295Z,1012.58
2018-08-31T05:42:21.810Z,1012.57
2018-08-31T05:43:27.326Z,1012.56
2018-08-31T05:44:32.840Z,1012.55
2018-08-31T05:45:38.350Z,1012.60
2018-08-31T05:46:43.916Z,1012.57
2018-08-31T05:47:49.378Z,1012.55
2018-08-31T05:48:54.891Z,1012.62
2018-08-31T05:50:00.395Z,1012.56
2018-08-31T05:51:05.914Z,1012.60
2018-08-31T05:52:11.425Z,1012.58
2018-08-31T05:53:16.939Z,1012.59
2018-08-31T05:54:22.450Z,1012.56
2018-08-31T05:55:27.965Z,1012.60
2018-08-31T05:56:33.478Z,1012.58
2018-08-31T05:57:38.991Z,1012.60
2018-08-31T05:58:44.508Z,1012.62
2018-08-31T05:59:50.023Z,1012.61
2018-08-31T06:00:55.532Z,1012.58
2018-08-31T06:02:01.053Z,1012.61
2018-08-31T06:03:06.565Z,1012.59
2018-08-31T06:04:12.067Z,1012.62
2018-08-31T06:05:17.582Z,1012.61
2018-08-31T06:06:23.100Z,1012.61
2018-08-31T06:07:28.611Z,1012.63
2018-08-31T06:08:34.119Z,1012.65
2018-08-31T06:09:39.639Z,1012.64
2018-08-31T06:10:45.175Z,1012.65
2018-08-31T06:11:50.700Z,1012.67
2018-08-31T06:12:56.174Z,1012.69
2018-08-31T06:14:01.693Z,1012.66
2018-08-31T06:15:07.206Z,1012.67
2018-08-31T06:16:12.719Z,1012.66
2018-08-31T06:17:18.227Z,1012.67
2018-08-31T06:18:23.738Z,1012.66
2018-08-31T06:19:29.254Z,1012.66
2018-08-31T06:20:34.766Z,1012.67
2018-08-31T06:21:40.278Z,1012.67
2018-08-31T06:22:45.797Z,1012.64
2018-08-31T06:23:51.305Z,1012.66
2018-08-31T06:24:56.832Z,1012.69
2018-08-31T06:26:02.331Z,1012.67
2018-08-31T06:27:07.922Z,1012.64
2018-08-31T06:28:13.359Z,1012.65
2018-08-31T06:29:18.869Z,1012.69
2018-08-31T06:30:24.418Z,1012.70
2018-08-31T06:31:29.911Z,1012.69
2018-08-31T06:32:35.451Z,1012.69
2018-08-31T06:33:40.925Z,1012.67
2018-08-31T06:34:46.438Z,1012.72
2018-08-31T06:35:51.976Z,1012.74
2018-08-31T06:36:57.468Z,1012.75
2018-08-31T06:38:02.975Z,1012.78
2018-08-31T06:39:08.500Z,1012.82
2018-08-31T06:40:14.012Z,1012.75
2018-08-31T06:41:19.519Z,1012.79
2018-08-31T06:42:25.032Z,1012.73
2018-08-31T06:43:30.551Z,1012.80
2018-08-31T06:44:36.062Z,1012.74
2018-08-31T06:45:41.574Z,1012.78
2018-08-31T06:46:47.093Z,1012.78
2018-08-31T06:47:52.602Z,1012.78
2018-08-31T06:48:58.115Z,1012.81
2018-08-31T06:50:03.633Z,1012.82
2018-08-31T06:51:09.147Z,1012.81
2018-08-31T06:52:14.654Z,1012.76
2018-08-31T06:53:20.166Z,1012.76
2018-08-31T06:54:25.682Z,1012.81
2018-08-31T06:55:31.194Z,1012.82
2018-08-31T06:56:36.709Z,1012.81
2018-08-31T06:57:42.223Z,1012.80
2018-08-31T06:58:47.737Z,1012.80
2018-08-31T06:59:53.238Z,1012.82
2018-08-31T07:00:58.767Z,1012.82
2018-08-31T07:02:04.275Z,1012.78
2018-08-31T07:03:09.792Z,1012.82
2018-08-31T07:04:15.305Z,1012.78
2018-08-31T07:05:20.819Z,1012.82
2018-08-31T07:06:26.342Z,1012.78
2018-08-31T07:07:31.842Z,1012.84
2018-08-31T07:08:37.359Z,1012.81
2018-08-31T07:09:42.875Z,1012.78
2018-08-31T07:10:48.389Z,1012.77
2018-08-31T07:11:53.900Z,1012.79
2018-08-31T07:12:59.411Z,1012.84
2018-08-31T07:14:04.929Z,1012.83
2018-08-31T07:15:10.454Z,1012.84
2018-08-31T07:16:15.961Z,1012.89
2018-08-31T07:17:21.474Z,1012.87
2018-08-31T07:18:26.983Z,1012.90
2018-08-31T07:19:32.499Z,1012.86
2018-08-31T07:20:38.011Z,1012.87
2018-08-31T07:21:43.525Z,1012.85
2018-08-31T07:22:49.044Z,1012.83
2018-08-31T07:23:54.550Z,1012.85
2018-08-31T07:25:00.070Z,1012.91
2018-08-31T07:26:05.578Z,1012.88
2018-08-31T07:27:11.095Z,1012.89
2018-08-31T07:28:16.609Z,1012.94
2018-08-31T07:29:22.129Z,1012.93
2018-08-31T07:30:27.641Z,1012.93
2018-08-31T07:31:33.150Z,1012.89
2018-08-31T07:32:38.667Z,1012.95
2018-08-31T07:33:44.181Z,1012.91
2018-08-31T07:34:49.700Z,1012.94
2018-08-31T07:35:55.205Z,1012.95
2018-08-31T07:37:00.724Z,1012.97
2018-08-31T07:38:06.235Z,1012.97
2018-08-31T07:39:11.747Z,1013.02
2018-08-31T07:40:17.277Z,1012.99
2018-08-31T07:41:22.779Z,1013.01
2018-08-31T07:42:28.293Z,1013.04
2018-08-31T07:43:33.809Z,1013.01
2018-08-31T07:44:39.327Z,1013.02
2018-08-31T07:45:44.842Z,1013.03
2018-08-31T07:46:50.355Z,1013.05
2018-08-31T07:47:55.936Z,1013.06
2018-08-31T07:49:01.381Z,1013.05
2018-08-31T07:50:06.912Z,1013.03
2018-08-31T07:51:12.415Z,1013.03
2018-08-31T07:52:17.928Z,1013.05
2018-08-31T07:53:23.440Z,1013.01
2018-08-31T07:54:28.955Z,1013.02
2018-08-31T07:55:34.473Z,1013.03
2018-08-31T07:56:39.987Z,1013.04
2018-08-31T07:57:45.498Z,1012.96
2018-08-31T07:58:51.012Z,1013.01
2018-08-31T07:59:56.527Z,1012.97
2018-08-31T08:01:02.051Z,1013.00
2018-08-31T08:02:07.555Z,1013.00
2018-08-31T08:03:13.072Z,1013.04
2018-08-31T08:04:18.601Z,1013.09
2018-08-31T08:05:24.131Z,1013.08
2018-08-31T08:06:29.620Z,1013.09
2018-08-31T08:07:35.166Z,1013.13
2018-08-31T08:08:40.650Z,1013.10
2018-08-31T08:09:46.168Z,1013.12
2018-08-31T08:10:51.682Z,1013.11
2018-08-31T08:11:57.195Z,1013.10
2018-08-31T08:13:02.711Z,1013.13
2018-08-31T08:14:08.228Z,1013.10
2018-08-31T08:15:13.747Z,1013.09
2018-08-31T08:16:19.255Z,1013.11
2018-08-31T08:17:24.768Z,1013.16
2018-08-31T08:18:30.287Z,1013.10
2018-08-31T08:19:35.822Z,1013.11
2018-08-31T08:20:41.315Z,1013.16
2018-08-31T08:21:46.836Z,1013.13
2018-08-31T08:22:52.347Z,1013.15
2018-08-31T08:23:57.878Z,1013.15
2018-08-31T08:25:03.380Z,1013.13
2018-08-31T08:26:08.891Z,1013.13
2018-08-31T08:27:14.410Z,1013.18
2018-08-31T08:28:19.977Z,1013.17
2018-08-31T08:29:25.447Z,1013.18
2018-08-31T08:30:30.969Z,1013.16
2018-08-31T08:31:36.475Z,1013.12
2018-08-31T08:32:41.989Z,1013.15
2018-08-31T08:33:47.508Z,1013.15
2018-08-31T08:34:53.014Z,1013.14
2018-08-31T08:35:58.536Z,1013.14
2018-08-31T08:37:04.044Z,1013.14
2018-08-31T08:38:09.567Z,1013.16
2018-08-31T08:39:15.076Z,1013.13
2018-08-31T08:40:20.596Z,1013.12
2018-08-31T08:41:26.106Z,1013.17
2018-08-31T08:42:31.712Z,1013.15
2018-08-31T08:43:37.148Z,1013.14
2018-08-31T08:44:42.664Z,1013.16
2018-08-31T08:45:48.171Z,1013.16
2018-08-31T08:46:53.688Z,1013.13
2018-08-31T08:47:59.201Z,1013.11
2018-08-31T08:49:04.716Z,1013.11
2018-08-31T08:50:10.235Z,1013.14
2018-08-31T08:51:15.754Z,1013.14
2018-08-31T08:52:21.273Z,1013.10
2018-08-31T08:53:26.776Z,1013.12
2018-08-31T08:54:32.296Z,1013.15
2018-08-31T08:55:37.807Z,1013.16
2018-08-31T08:56:43.335Z,1013.20
2018-08-31T08:57:48.861Z,1013.16
2018-08-31T08:58:54.351Z,1013.15
2018-08-31T08:59:59.874Z,1013.14
2018-08-31T09:01:05.390Z,1013.15
2018-08-31T09:02:10.907Z,1013.16
2018-08-31T09:03:16.422Z,1013.15
2018-08-31T09:04:21.927Z,1013.17
2018-08-31T09:05:27.451Z,1013.17
2018-08-31T09:06:32.965Z,1013.18
2018-08-31T09:07:38.475Z,1013.19
2018-08-31T09:08:43.993Z,1013.18
2018-08-31T09:09:49.510Z,1013.16
2018-08-31T09:10:55.080Z,1013.21
2018-08-31T09:12:00.614Z,1013.18
2018-08-31T09:13:06.050Z,1013.19
2018-08-31T09:14:11.576Z,1013.19
2018-08-31T09:15:17.095Z,1013.18
2018-08-31T09:16:22.597Z,1013.17
2018-08-31T09:17:28.127Z,1013.18
2018-08-31T09:18:33.718Z,1013.20
2018-08-31T09:19:39.147Z,1013.20
2018-08-31T09:20:44.659Z,1013.17
2018-08-31T09:21:50.190Z,1013.16
2018-08-31T09:22:55.694Z,1013.17
2018-08-31T09:24:01.205Z,1013.12
2018-08-31T09:25:06.728Z,1013.21
2018-08-31T09:26:12.236Z,1013.15
2018-08-31T09:27:17.749Z,1013.19
2018-08-31T09:28:23.264Z,1013.21
2018-08-31T09:29:28.781Z,1013.25
2018-08-31T09:30:34.299Z,1013.23
2018-08-31T09:31:39.814Z,1013.20
2018-08-31T09:32:45.392Z,1013.18
2018-08-31T09:33:50.852Z,1013.20
2018-08-31T09:34:56.364Z,1013.14
2018-08-31T09:36:01.869Z,1013.12
2018-08-31T09:37:07.385Z,1013.16
2018-08-31T09:38:12.906Z,1013.14
2018-08-31T09:39:18.417Z,1013.11
2018-08-31T09:40:23.933Z,1013.09
2018-08-31T09:41:29.450Z,1013.10
2018-08-31T09:42:34.969Z,1013.11
2018-08-31T09:43:40.489Z,1013.07
2018-08-31T09:44:45.996Z,1013.11
2018-08-31T09:45:51.514Z,1013.08
2018-08-31T09:46:57.019Z,1013.07
2018-08-31T09:48:02.537Z,1013.14
2018-08-31T09:49:08.051Z,1013.07
2018-08-31T09:50:13.571Z,1013.09
2018-08-31T09:51:19.083Z,1013.10
2018-08-31T09:52:24.597Z,1013.06
2018-08-31T09:53:30.112Z,1013.05
2018-08-31T09:54:35.624Z,1013.06
2018-08-31T09:55:41.142Z,1013.05
2018-08-31T09:56:46.656Z,1013.07
2018-08-31T09:57:52.174Z,1013.06
2018-08-31T09:58:57.686Z,1013.04
2018-08-31T10:00:03.218Z,1012.98
2018-08-31T10:01:08.724Z,1013.02
2018-08-31T10:02:14.236Z,1013.01
2018-08-31T10:03:19.747Z,1012.99
2018-08-31T10:04:25.266Z,1012.96
2018-08-31T10:05:30.775Z,1012.94
2018-08-31T10:06:36.293Z,1012.96
2018-08-31T10:07:41.815Z,1012.97
2018-08-31T10:08:47.323Z,1012.94
2018-08-31T10:09:52.847Z,1012.95
2018-08-31T10:10:58.364Z,1013.01
2018-08-31T10:12:03.869Z,1013.00
2018-08-31T10:13:09.394Z,1012.99
2018-08-31T10:14:14.908Z,1013.00
2018-08-31T10:15:20.415Z,1013.01
2018-08-31T10:16:25.940Z,1012.97
2018-08-31T10:17:31.444Z,1012.96
2018-08-31T10:18:36.986Z,1012.94
2018-08-31T10:19:42.486Z,1012.96
2018-08-31T10:20:47.995Z,1012.98
2018-08-31T10:21:53.511Z,1012.97
2018-08-31T10:22:59.023Z,1012.99
2018-08-31T10:24:04.544Z,1012.97
2018-08-31T10:25:10.063Z,1012.96
2018-08-31T10:26:15.594Z,1012.96
2018-08-31T10:27:21.092Z,1013.00
2018-08-31T10:28:26.603Z,1012.95
2018-08-31T10:29:32.115Z,1012.99
2018-08-31T10:30:37.635Z,1012.98
2018-08-31T10:31:43.155Z,1012.97
2018-08-31T10:32:48.670Z,1012.97
2018-08-31T10:33:54.202Z,1012.93
2018-08-31T10:34:59.698Z,1012.97
2018-08-31T10:36:05.212Z,1012.94
2018-08-31T10:37:10.731Z,1012.98
2018-08-31T10:38:16.233Z,1012.95
2018-08-31T10:39:21.760Z,1012.96
2018-08-31T10:40:27.280Z,1012.94
2018-08-31T10:41:32.793Z,1012.97
2018-08-31T10:42:38.309Z,1012.91
2018-08-31T10:43:43.837Z,1012.94
2018-08-31T10:44:49.344Z,1012.91
2018-08-31T10:45:54.863Z,1012.90
2018-08-31T10:47:00.374Z,1012.93
2018-08-31T10:48:05.895Z,1012.92
2018-08-31T10:49:11.415Z,1012.91
2018-08-31T10:50:16.921Z,1012.92
2018-08-31T10:51:22.437Z,1012.94
2018-08-31T10:52:27.951Z,1012.95
2018-08-31T10:53:33.465Z,1012.94
2018-08-31T10:54:38.977Z,1012.95
2018-08-31T10:55:44.515Z,1012.97
2018-08-31T10:56:50.027Z,1012.94
2018-08-31T10:57:55.529Z,1012.89
2018-08-31T10:59:01.049Z,1012.92
2018-08-31T11:00:06.569Z,1012.90
2018-08-31T11:01:12.084Z,1012.94
2018-08-31T11:02:17.592Z,1012.94
2018-08-31T11:03:23.111Z,1012.98
2018-08-31T11:04:28.633Z,1012.95
2018-08-31T11:05:34.137Z,1012.95
2018-08-31T11:06:39.656Z,1012.93
2018-08-31T11:07:45.175Z,1012.93
2018-08-31T11:08:50.689Z,1012.93
2018-08-31T11:09:56.212Z,1012.93
2018-08-31T11:11:01.723Z,1012.92
2018-08-31T11:12:07.234Z,1012.94
2018-08-31T11:13:12.842Z,1012.91
2018-08-31T11:14:18.274Z,1012.92
2018-08-31T11:15:23.874Z,1012.92
2018-08-31T11:16:29.308Z,1012.95
2018-08-31T11:17:34.821Z,1012.90
2018-08-31T11:18:40.388Z,1012.89
2018-08-31T11:19:45.859Z,1012.91
2018-08-31T11:20:51.366Z,1012.91
2018-08-31T11:21:56.884Z,1012.89
2018-08-31T11:23:02.407Z,1012.89
2018-08-31T11:24:07.913Z,1012.89
2018-08-31T11:25:13.428Z,1012.89
2018-08-31T11:26:18.957Z,1012.85
2018-08-31T11:27:24.463Z,1012.90
2018-08-31T11:28:29.980Z,1012.86
2018-08-31T11:29:35.506Z,1012.90
2018-08-31T11:30:41.009Z,1012.89
2018-08-31T11:31:46.532Z,1012.89
2018-08-31T11:32:52.047Z,1012.91
2018-08-31T11:33:57.563Z,1012.88
2018-08-31T11:35:03.086Z,1012.93
2018-08-31T11:36:08.590Z,1012.92
2018-08-31T11:37:14.104Z,1012.91
2018-08-31T11:38:19.631Z,1012.90
2018-08-31T11:39:25.146Z,1012.90
2018-08-31T11:40:30.661Z,1012.89
2018-08-31T11:41:36.173Z,1012.90
2018-08-31T11:42:41.692Z,1012.91
2018-08-31T11:43:47.216Z,1012.93
2018-08-31T11:44:52.731Z,1012.93
2018-08-31T11:45:58.241Z,1012.87
2018-08-31T11:47:03.754Z,1012.92
2018-08-31T11:48:09.272Z,1012.86
2018-08-31T11:49:14.797Z,1012.83
2018-08-31T11:50:20.303Z,1012.84
2018-08-31T11:51:25.826Z,1012.86
2018-08-31T11:52:31.335Z,1012.83
2018-08-31T11:53:36.862Z,1012.82
2018-08-31T11:54:42.377Z,1012.83
2018-08-31T11:55:47.893Z,1012.80
2018-08-31T11:56:53.404Z,1012.83
2018-08-31T11:57:58.927Z,1012.81
2018-08-31T11:59:04.434Z,1012.79
2018-08-31T12:00:09.957Z,1012.81
2018-08-31T12:01:15.496Z,1012.79
2018-08-31T12:02:20.995Z,1012.79
2018-08-31T12:03:26.507Z,1012.77
2018-08-31T12:04:32.018Z,1012.74
2018-08-31T12:05:37.532Z,1012.74
2018-08-31T12:06:43.045Z,1012.75
2018-08-31T12:07:48.598Z,1012.74
2018-08-31T12:08:54.085Z,1012.75
2018-08-31T12:09:59.602Z,1012.71
2018-08-31T12:11:05.131Z,1012.71
2018-08-31T12:12:10.633Z,1012.69
2018-08-31T12:13:16.148Z,1012.71
2018-08-31T12:14:21.673Z,1012.68
2018-08-31T12:15:27.184Z,1012.68
2018-08-31T12:16:32.700Z,1012.64
2018-08-31T12:17:38.221Z,1012.59
2018-08-31T12:18:43.733Z,1012.67
2018-08-31T12:19:49.248Z,1012.62
2018-08-31T12:20:54.784Z,1012.63
2018-08-31T12:22:00.283Z,1012.61
2018-08-31T12:23:05.801Z,1012.60
2018-08-31T12:24:11.320Z,1012.59
2018-08-31T12:25:16.833Z,1012.59
2018-08-31T12:26:22.352Z,1012.58
2018-08-31T12:27:27.865Z,1012.61
2018-08-31T12:28:33.385Z,1012.62
2018-08-31T12:29:38.905Z,1012.60
2018-08-31T12:30:44.418Z,1012.56
2018-08-31T12:31:49.943Z,1012.60
2018-08-31T12:32:55.455Z,1012.57
2018-08-31T12:34:00.973Z,1012.61
2018-08-31T12:35:06.488Z,1012.53
2018-08-31T12:36:12.005Z,1012.56
2018-08-31T12:37:17.524Z,1012.47
2018-08-31T12:38:23.048Z,1012.49
2018-08-31T12:39:28.563Z,1012.50
2018-08-31T12:40:34.083Z,1012.45
2018-08-31T12:41:39.591Z,1012.50
2018-08-31T12:42:45.103Z,1012.52
2018-08-31T12:43:50.629Z,1012.54
2018-08-31T12:44:56.151Z,1012.48
2018-08-31T12:46:01.660Z,1012.52
2018-08-31T12:47:07.166Z,1012.49
2018-08-31T12:48:12.688Z,1012.50
2018-08-31T12:49:18.207Z,1012.50
2018-08-31T12:50:23.726Z,1012.51
2018-08-31T12:51:29.242Z,1012.51
2018-08-31T12:52:34.763Z,1012.53
2018-08-31T12:53:40.275Z,1012.51
2018-08-31T12:54:45.792Z,1012.54
2018-08-31T12:55:51.306Z,1012.53
2018-08-31T12:56:56.825Z,1012.50
2018-08-31T12:58:02.342Z,1012.52
2018-08-31T12:59:07.861Z,1012.50
2018-08-31T13:00:13.444Z,1012.47
2018-08-31T13:01:18.901Z,1012.50
2018-08-31T13:02:24.418Z,1012.49
2018-08-31T13:03:29.928Z,1012.55
2018-08-31T13:04:35.444Z,1012.56
2018-08-31T13:05:40.964Z,1012.51
2018-08-31T13:06:46.488Z,1012.50
2018-08-31T13:07:51.999Z,1012.49
2018-08-31T13:08:57.522Z,1012.50
2018-08-31T13:10:03.030Z,1012.50
2018-08-31T13:11:08.647Z,1012.50
2018-08-31T13:12:14.073Z,1012.44